Time;durP1;ratioP1;P1;durP2;ratioP2;P2;SDS_P1;SDS_P2;PMS_P1;PMS_P2;Temp;Humidity;BMP_temperature;BMP_pressure;BME280_temperature;BME280_humidity;BME280_pressure;Samples;Min_cycle;Max_cycle;Signal;HPM_P1;HPM_P2
2023/12/23 00:00:04;;;;;;;7.78;2.05;;;;;;;;;;1037159;28;20245;-64
2023/12/23 00:00:34;;;;;;;6.82;2.15;;;;;;;;;;1036555;28;20099;-65
2023/12/23 00:01:25;;;;;;;6.38;2.28;;;;;;;;;;1037024;28;20061;-65
2023/12/23 00:01:57;;;;;;;5.40;2.20;;;;;;;;;;1038193;28;20045;-65
2023/12/23 00:02:27;;;;;;;8.63;2.70;;;;;;;;;;1037257;28;20057;-65
2023/12/23 00:02:58;;;;;;;6.68;2.15;;;;;;;;;;1038788;28;20095;-65
2023/12/23 00:03:28;;;;;;;4.82;1.98;;;;;;;;;;1037175;28;20128;-64
2023/12/23 00:04:00;;;;;;;8.25;2.22;;;;;;;;;;1037430;28;20049;-64
2023/12/23 00:04:31;;;;;;;4.85;1.90;;;;;;;;;;1037748;28;20087;-64
2023/12/23 00:05:01;;;;;;;6.25;2.10;;;;;;;;;;1038909;28;20107;-65
2023/12/23 00:05:32;;;;;;;7.07;2.13;;;;;;;;;;1037029;28;20541;-64
2023/12/23 00:06:02;;;;;;;9.65;2.60;;;;;;;;;;1037296;28;21659;-64
2023/12/23 00:06:33;;;;;;;12.00;2.45;;;;;;;;;;1037221;28;20132;-64
2023/12/23 00:07:03;;;;;;;7.22;1.90;;;;;;;;;;1038842;28;20148;-65
2023/12/23 00:07:35;;;;;;;8.77;2.03;;;;;;;;;;1038416;28;20040;-64
2023/12/23 00:08:06;;;;;;;6.07;1.95;;;;;;;;;;1037209;28;20041;-65
2023/12/23 00:08:36;;;;;;;4.90;2.58;;;;;;;;;;1037112;28;20057;-64
2023/12/23 00:09:07;;;;;;;11.60;2.22;;;;;;;;;;1037945;28;20053;-64
2023/12/23 00:09:37;;;;;;;8.52;1.90;;;;;;;;;;1037440;28;20058;-65
2023/12/23 00:10:08;;;;;;;5.85;2.55;;;;;;;;;;1037979;28;20120;-64
2023/12/23 00:10:39;;;;;;;9.25;2.78;;;;;;;;;;1036238;28;20749;-64
2023/12/23 00:11:09;;;;;;;7.38;1.67;;;;;;;;;;1037307;28;20444;-64
2023/12/23 00:11:39;;;;;;;7.75;2.47;;;;;;;;;;1037843;28;20073;-65
2023/12/23 00:12:10;;;;;;;7.97;2.47;;;;;;;;;;1037768;28;20046;-64
2023/12/23 00:12:41;;;;;;;10.07;2.25;;;;;;;;;;1037565;28;20496;-65
2023/12/23 00:13:12;;;;;;;7.40;1.88;;;;;;;;;;1037772;28;20176;-64
2023/12/23 00:13:42;;;;;;;6.72;2.28;;;;;;;;;;1037972;28;20775;-64
2023/12/23 00:14:13;;;;;;;5.68;2.25;;;;;;;;;;1038466;28;20049;-65
2023/12/23 00:14:43;;;;;;;6.15;1.88;;;;;;;;;;1036414;28;20053;-65
2023/12/23 00:15:14;;;;;;;10.38;2.13;;;;;;;;;;1037626;28;20504;-64
2023/12/23 00:15:44;;;;;;;6.43;2.40;;;;;;;;;;1037383;28;20053;-64
2023/12/23 00:16:15;;;;;;;10.98;2.28;;;;;;;;;;1037839;28;20056;-64
2023/12/23 00:16:46;;;;;;;8.57;2.40;;;;;;;;;;1038544;28;20053;-64
2023/12/23 00:17:16;;;;;;;9.45;2.25;;;;;;;;;;1038491;28;20042;-64
2023/12/23 00:17:46;;;;;;;7.18;2.58;;;;;;;;;;1038176;28;20517;-65
2023/12/23 00:18:17;;;;;;;6.53;2.40;;;;;;;;;;1038305;28;20053;-64
2023/12/23 00:18:47;;;;;;;7.05;2.28;;;;;;;;;;1037298;28;20060;-64
2023/12/23 00:19:18;;;;;;;4.70;2.50;;;;;;;;;;1038402;28;20394;-64
2023/12/23 00:19:49;;;;;;;10.18;2.17;;;;;;;;;;1038134;28;20049;-65
2023/12/23 00:20:19;;;;;;;6.53;2.03;;;;;;;;;;1037420;28;20054;-64
2023/12/23 00:20:50;;;;;;;7.55;2.30;;;;;;;;;;1035897;28;20055;-65
2023/12/23 00:21:20;;;;;;;6.13;2.08;;;;;;;;;;1037271;28;20093;-64
2023/12/23 00:21:51;;;;;;;12.88;2.22;;;;;;;;;;1038177;28;20562;-64
2023/12/23 00:22:21;;;;;;;3.95;2.15;;;;;;;;;;1037933;28;20072;-64
2023/12/23 00:22:52;;;;;;;8.77;2.95;;;;;;;;;;1038012;28;21933;-64
2023/12/23 00:23:22;;;;;;;6.65;2.75;;;;;;;;;;1037747;28;20057;-65
2023/12/23 00:23:53;;;;;;;7.05;1.90;;;;;;;;;;1038091;28;20060;-64
2023/12/23 00:24:29;;;;;;;5.78;2.63;;;;;;;;;;1037785;28;20053;-64
2023/12/23 00:24:59;;;;;;;9.40;2.42;;;;;;;;;;1037326;28;20060;-64
2023/12/23 00:25:30;;;;;;;6.43;2.08;;;;;;;;;;1037105;28;20099;-64
2023/12/23 00:26:00;;;;;;;8.30;1.90;;;;;;;;;;1038855;28;20132;-65
2023/12/23 00:26:31;;;;;;;6.28;2.20;;;;;;;;;;1037744;28;20111;-64
2023/12/23 00:27:01;;;;;;;7.35;1.67;;;;;;;;;;1037886;28;20049;-64
2023/12/23 00:27:32;;;;;;;6.50;2.20;;;;;;;;;;1037418;28;20436;-64
2023/12/23 00:28:03;;;;;;;4.63;2.28;;;;;;;;;;1038252;28;20049;-64
2023/12/23 00:28:33;;;;;;;5.30;1.73;;;;;;;;;;1037907;28;20054;-64
2023/12/23 00:29:04;;;;;;;6.78;2.05;;;;;;;;;;1037878;28;20597;-65
2023/12/23 00:29:34;;;;;;;4.32;2.10;;;;;;;;;;1037480;28;20075;-64
2023/12/23 00:30:05;;;;;;;8.32;1.98;;;;;;;;;;1037877;28;20076;-65
2023/12/23 00:30:36;;;;;;;9.68;1.90;;;;;;;;;;1037598;28;20067;-65
2023/12/23 00:31:06;;;;;;;3.90;2.30;;;;;;;;;;1038342;28;20069;-64
2023/12/23 00:31:37;;;;;;;5.53;2.25;;;;;;;;;;1037791;28;20493;-64
2023/12/23 00:32:08;;;;;;;4.50;2.10;;;;;;;;;;1038390;28;20041;-64
2023/12/23 00:32:40;;;;;;;5.10;2.03;;;;;;;;;;1037953;28;20681;-65
2023/12/23 00:33:11;;;;;;;5.43;2.13;;;;;;;;;;1038148;28;20489;-64
2023/12/23 00:33:43;;;;;;;4.03;2.00;;;;;;;;;;1037850;28;22807;-64
2023/12/23 00:34:13;;;;;;;6.97;2.10;;;;;;;;;;1037356;28;20080;-64
2023/12/23 00:34:44;;;;;;;5.95;2.15;;;;;;;;;;1037776;28;20056;-64
2023/12/23 00:35:15;;;;;;;6.68;2.33;;;;;;;;;;1038259;28;20053;-64
2023/12/23 00:35:45;;;;;;;8.73;2.80;;;;;;;;;;1037711;28;20085;-64
2023/12/23 00:36:15;;;;;;;9.45;2.30;;;;;;;;;;1038147;28;20123;-64
2023/12/23 00:36:46;;;;;;;5.88;2.03;;;;;;;;;;1037951;28;20144;-65
2023/12/23 00:37:16;;;;;;;6.43;1.88;;;;;;;;;;1037480;28;20060;-64
2023/12/23 00:37:47;;;;;;;6.70;2.30;;;;;;;;;;1037908;28;20154;-65
2023/12/23 00:38:17;;;;;;;6.22;1.95;;;;;;;;;;1037785;28;20044;-64
2023/12/23 00:38:49;;;;;;;5.80;1.80;;;;;;;;;;1037022;28;20049;-64
2023/12/23 00:39:19;;;;;;;4.50;2.00;;;;;;;;;;1038474;28;20045;-64
2023/12/23 00:39:50;;;;;;;5.40;1.73;;;;;;;;;;1038042;28;20049;-64
2023/12/23 00:40:21;;;;;;;8.68;2.20;;;;;;;;;;1037416;28;20838;-65
2023/12/23 00:40:51;;;;;;;6.60;2.25;;;;;;;;;;1037958;28;20128;-64
2023/12/23 00:41:22;;;;;;;6.72;2.22;;;;;;;;;;1037688;28;20068;-64
2023/12/23 00:41:53;;;;;;;6.82;1.70;;;;;;;;;;1037316;28;20057;-64
2023/12/23 00:42:23;;;;;;;7.47;2.35;;;;;;;;;;1036729;28;20496;-64
2023/12/23 00:42:54;;;;;;;4.88;2.28;;;;;;;;;;1038683;28;20052;-64
2023/12/23 00:43:25;;;;;;;8.50;2.05;;;;;;;;;;1037399;28;20037;-64
2023/12/23 00:43:55;;;;;;;8.10;2.05;;;;;;;;;;1037770;28;20060;-65
2023/12/23 00:44:26;;;;;;;4.72;1.73;;;;;;;;;;1037691;28;20049;-65
2023/12/23 00:44:57;;;;;;;7.53;2.00;;;;;;;;;;1038019;28;20050;-64
2023/12/23 00:45:27;;;;;;;8.52;2.35;;;;;;;;;;1037118;28;20046;-64
2023/12/23 00:45:58;;;;;;;7.40;1.90;;;;;;;;;;1038917;28;20441;-65
2023/12/23 00:46:29;;;;;;;8.88;2.00;;;;;;;;;;1037823;28;20046;-65
2023/12/23 00:46:59;;;;;;;4.32;2.17;;;;;;;;;;1037654;28;20511;-64
2023/12/23 00:47:30;;;;;;;10.82;3.17;;;;;;;;;;1036162;28;20494;-64
2023/12/23 00:48:00;;;;;;;11.18;2.17;;;;;;;;;;1038490;28;20081;-65
2023/12/23 00:48:31;;;;;;;7.25;2.42;;;;;;;;;;1037394;28;20053;-64
2023/12/23 00:49:01;;;;;;;5.72;2.13;;;;;;;;;;1037782;28;20046;-64
2023/12/23 00:49:32;;;;;;;5.90;1.88;;;;;;;;;;1036530;28;20114;-64
2023/12/23 00:50:03;;;;;;;6.70;2.00;;;;;;;;;;1037747;28;20054;-65
2023/12/23 00:50:34;;;;;;;5.72;2.30;;;;;;;;;;1038363;28;20052;-64
2023/12/23 00:51:04;;;;;;;3.60;1.80;;;;;;;;;;1036678;28;20114;-64
2023/12/23 00:51:35;;;;;;;6.07;1.70;;;;;;;;;;1036915;28;20461;-65
2023/12/23 00:52:06;;;;;;;7.22;2.03;;;;;;;;;;1038008;28;20049;-64
2023/12/23 00:52:36;;;;;;;4.65;2.30;;;;;;;;;;1038179;28;20336;-64
2023/12/23 00:53:07;;;;;;;3.00;1.48;;;;;;;;;;1033921;28;20054;-64
2023/12/23 00:53:37;;;;;;;12.90;2.42;;;;;;;;;;1033542;28;20046;-64
2023/12/23 00:54:08;;;;;;;5.32;2.42;;;;;;;;;;1034352;28;20042;-64
2023/12/23 00:54:39;;;;;;;7.07;3.72;;;;;;;;;;1033389;28;20069;-65
2023/12/23 00:55:09;;;;;;;6.40;2.20;;;;;;;;;;1032387;28;20076;-64
2023/12/23 00:55:40;;;;;;;6.38;2.15;;;;;;;;;;1032669;28;20498;-64
2023/12/23 00:56:10;;;;;;;6.75;1.83;;;;;;;;;;1033933;28;20096;-65
2023/12/23 00:56:41;;;;;;;5.15;2.05;;;;;;;;;;1033447;28;20061;-64
2023/12/23 00:57:11;;;;;;;3.50;2.00;;;;;;;;;;1034403;28;20108;-64
2023/12/23 00:57:41;;;;;;;12.70;2.83;;;;;;;;;;1032107;28;20049;-64
2023/12/23 00:58:12;;;;;;;12.43;2.38;;;;;;;;;;1034337;28;20111;-64
2023/12/23 00:58:43;;;;;;;11.38;2.08;;;;;;;;;;1033073;28;20053;-65
2023/12/23 00:59:13;;;;;;;4.68;1.83;;;;;;;;;;1033273;28;20105;-64
2023/12/23 00:59:44;;;;;;;6.65;2.30;;;;;;;;;;1032629;28;20053;-64
2023/12/23 01:00:14;;;;;;;4.63;2.00;;;;;;;;;;1033402;28;20073;-64
2023/12/23 01:00:46;;;;;;;6.97;1.85;;;;;;;;;;1033177;28;20049;-64
2023/12/23 01:01:16;;;;;;;5.60;1.95;;;;;;;;;;1033396;28;20053;-64
2023/12/23 01:01:47;;;;;;;8.38;2.33;;;;;;;;;;1033188;28;20069;-64
2023/12/23 01:02:17;;;;;;;5.45;2.10;;;;;;;;;;1033969;28;20050;-64
2023/12/23 01:02:48;;;;;;;2.78;1.52;;;;;;;;;;1033441;28;20061;-64
2023/12/23 01:03:18;;;;;;;5.88;2.28;;;;;;;;;;1033888;28;20050;-64
2023/12/23 01:03:49;;;;;;;3.35;2.00;;;;;;;;;;1033580;28;20414;-64
2023/12/23 01:04:19;;;;;;;4.00;1.80;;;;;;;;;;1033698;28;20049;-64
2023/12/23 01:04:50;;;;;;;5.43;1.77;;;;;;;;;;1032452;28;20050;-64
2023/12/23 01:05:20;;;;;;;2.47;1.23;;;;;;;;;;1032859;28;20528;-64
2023/12/23 01:05:51;;;;;;;11.15;2.28;;;;;;;;;;1031402;28;20054;-64
2023/12/23 01:06:22;;;;;;;5.68;1.90;;;;;;;;;;1031942;28;20056;-64
2023/12/23 01:06:52;;;;;;;4.97;1.67;;;;;;;;;;1033827;28;20049;-64
2023/12/23 01:07:23;;;;;;;7.53;1.75;;;;;;;;;;1032115;28;20488;-64
2023/12/23 01:07:53;;;;;;;5.57;1.90;;;;;;;;;;1036375;28;20080;-64
2023/12/23 01:08:25;;;;;;;8.68;2.55;;;;;;;;;;1037243;28;20053;-64
2023/12/23 01:08:56;;;;;;;9.80;2.00;;;;;;;;;;1037729;28;20482;-64
2023/12/23 01:09:26;;;;;;;7.20;2.30;;;;;;;;;;1036927;28;20821;-64
2023/12/23 01:09:57;;;;;;;5.30;1.85;;;;;;;;;;1033369;28;20045;-65
2023/12/23 01:10:28;;;;;;;6.72;2.45;;;;;;;;;;1033009;28;20406;-64
2023/12/23 01:10:59;;;;;;;8.02;1.95;;;;;;;;;;1032103;28;20701;-64
2023/12/23 01:11:30;;;;;;;5.65;2.00;;;;;;;;;;1033594;28;20041;-64
2023/12/23 01:12:00;;;;;;;6.65;2.15;;;;;;;;;;1034161;28;20045;-65
2023/12/23 01:12:30;;;;;;;6.47;1.73;;;;;;;;;;1032678;28;20077;-65
2023/12/23 01:13:01;;;;;;;7.15;1.60;;;;;;;;;;1033461;28;20490;-64
2023/12/23 01:13:31;;;;;;;7.28;2.00;;;;;;;;;;1033004;28;20053;-64
2023/12/23 01:14:02;;;;;;;7.90;2.10;;;;;;;;;;1033519;28;20072;-64
2023/12/23 01:14:33;;;;;;;8.25;2.40;;;;;;;;;;1033013;28;20038;-64
2023/12/23 01:15:04;;;;;;;3.15;1.80;;;;;;;;;;1032474;28;20046;-64
2023/12/23 01:15:34;;;;;;;4.68;1.90;;;;;;;;;;1033112;28;20639;-64
2023/12/23 01:16:05;;;;;;;6.45;2.17;;;;;;;;;;1033681;28;20077;-64
2023/12/23 01:16:35;;;;;;;8.15;2.05;;;;;;;;;;1032951;28;20050;-64
2023/12/23 01:17:06;;;;;;;4.78;1.40;;;;;;;;;;1033348;28;20054;-65
2023/12/23 01:17:37;;;;;;;4.28;1.60;;;;;;;;;;1031021;28;20406;-64
2023/12/23 01:18:08;;;;;;;11.25;3.20;;;;;;;;;;1032630;28;20044;-64
2023/12/23 01:18:39;;;;;;;12.57;2.08;;;;;;;;;;1031978;28;20064;-65
2023/12/23 01:19:09;;;;;;;3.78;1.90;;;;;;;;;;1033137;28;20639;-64
2023/12/23 01:19:40;;;;;;;7.88;1.75;;;;;;;;;;1031885;28;20116;-64
2023/12/23 01:20:11;;;;;;;5.93;1.80;;;;;;;;;;1033759;28;20061;-65
2023/12/23 01:20:42;;;;;;;6.10;2.03;;;;;;;;;;1032261;28;20154;-65
2023/12/23 01:21:12;;;;;;;4.85;1.80;;;;;;;;;;1031713;28;20056;-64
2023/12/23 01:21:43;;;;;;;9.98;2.13;;;;;;;;;;1031144;28;20053;-64
2023/12/23 01:22:13;;;;;;;6.13;1.95;;;;;;;;;;1032359;28;20037;-65
2023/12/23 01:22:44;;;;;;;8.23;2.75;;;;;;;;;;1030343;28;20061;-64
2023/12/23 01:23:14;;;;;;;5.78;1.80;;;;;;;;;;1033815;28;20045;-64
2023/12/23 01:23:45;;;;;;;9.30;2.20;;;;;;;;;;1032426;28;20041;-64
2023/12/23 01:24:16;;;;;;;8.40;1.80;;;;;;;;;;1033886;28;20054;-65
2023/12/23 01:24:46;;;;;;;7.85;1.52;;;;;;;;;;1030584;28;20061;-64
2023/12/23 01:25:17;;;;;;;4.88;2.15;;;;;;;;;;1032471;28;20050;-65
2023/12/23 01:25:47;;;;;;;9.80;2.40;;;;;;;;;;1032958;28;20050;-64
2023/12/23 01:26:18;;;;;;;12.27;2.35;;;;;;;;;;1032909;28;20100;-64
2023/12/23 01:26:49;;;;;;;3.33;1.40;;;;;;;;;;1033455;28;20544;-64
2023/12/23 01:27:19;;;;;;;10.20;2.20;;;;;;;;;;1032787;28;20049;-64
2023/12/23 01:27:49;;;;;;;7.88;2.05;;;;;;;;;;1032483;28;20077;-65
2023/12/23 01:28:20;;;;;;;9.00;2.22;;;;;;;;;;1034184;28;20431;-64
2023/12/23 01:28:51;;;;;;;7.90;1.80;;;;;;;;;;1033629;28;20065;-64
2023/12/23 01:29:21;;;;;;;5.65;2.15;;;;;;;;;;1032519;28;20058;-64
2023/12/23 01:29:52;;;;;;;4.00;2.28;;;;;;;;;;1032653;28;20050;-64
2023/12/23 01:30:22;;;;;;;5.90;1.85;;;;;;;;;;1032012;28;20053;-65
2023/12/23 01:30:53;;;;;;;11.05;2.00;;;;;;;;;;1030852;28;20057;-65
2023/12/23 01:31:24;;;;;;;3.00;1.90;;;;;;;;;;1033181;28;20100;-64
2023/12/23 01:31:55;;;;;;;5.43;2.15;;;;;;;;;;1034081;28;20065;-65
2023/12/23 01:32:25;;;;;;;6.30;2.13;;;;;;;;;;1033434;28;20648;-65
2023/12/23 01:32:56;;;;;;;3.45;1.80;;;;;;;;;;1032534;28;20053;-65
2023/12/23 01:33:26;;;;;;;6.25;1.85;;;;;;;;;;1033115;28;20413;-64
2023/12/23 01:33:57;;;;;;;9.57;1.73;;;;;;;;;;1032031;28;20042;-64
2023/12/23 01:34:27;;;;;;;7.78;2.15;;;;;;;;;;1033746;28;20046;-64
2023/12/23 01:34:58;;;;;;;9.13;2.17;;;;;;;;;;1033702;28;20478;-64
2023/12/23 01:35:28;;;;;;;2.28;1.65;;;;;;;;;;1033617;28;20651;-64
2023/12/23 01:35:59;;;;;;;4.90;1.70;;;;;;;;;;1032644;28;20099;-64
2023/12/23 01:36:29;;;;;;;8.98;1.83;;;;;;;;;;1032753;28;20164;-65
2023/12/23 01:37:00;;;;;;;6.70;1.92;;;;;;;;;;1033332;28;20046;-64
2023/12/23 01:37:30;;;;;;;5.47;1.95;;;;;;;;;;1032502;28;20751;-64
2023/12/23 01:38:01;;;;;;;7.18;2.20;;;;;;;;;;1033614;28;20055;-64
2023/12/23 01:38:33;;;;;;;8.75;2.30;;;;;;;;;;1033111;28;20046;-64
2023/12/23 01:39:04;;;;;;;5.85;1.73;;;;;;;;;;1032146;28;20050;-65
2023/12/23 01:39:34;;;;;;;5.00;1.98;;;;;;;;;;1031080;28;20072;-65
2023/12/23 01:40:06;;;;;;;5.30;1.65;;;;;;;;;;1033479;28;20061;-65
2023/12/23 01:40:37;;;;;;;7.07;1.70;;;;;;;;;;1032152;28;20046;-65
2023/12/23 01:41:07;;;;;;;2.95;1.60;;;;;;;;;;1032808;28;20050;-65
2023/12/23 01:41:38;;;;;;;5.95;1.65;;;;;;;;;;1032475;28;20049;-64
2023/12/23 01:42:09;;;;;;;8.00;1.80;;;;;;;;;;1033353;28;20045;-64
2023/12/23 01:42:40;;;;;;;9.35;2.22;;;;;;;;;;1032587;28;20058;-65
2023/12/23 01:43:10;;;;;;;7.97;2.25;;;;;;;;;;1032672;28;20100;-64
2023/12/23 01:43:41;;;;;;;8.50;1.92;;;;;;;;;;1032023;28;20049;-64
2023/12/23 01:44:11;;;;;;;7.82;2.50;;;;;;;;;;1034021;28;20100;-65
2023/12/23 01:44:42;;;;;;;6.03;2.33;;;;;;;;;;1032387;28;20058;-64
2023/12/23 01:45:13;;;;;;;7.57;2.15;;;;;;;;;;1033062;28;20053;-65
2023/12/23 01:45:43;;;;;;;1.80;1.65;;;;;;;;;;1033790;28;20449;-65
2023/12/23 01:46:14;;;;;;;10.55;2.25;;;;;;;;;;1033907;28;20042;-65
2023/12/23 01:46:46;;;;;;;10.02;2.08;;;;;;;;;;1033676;28;20057;-64
2023/12/23 01:47:17;;;;;;;3.40;1.38;;;;;;;;;;1033022;28;20049;-65
2023/12/23 01:47:49;;;;;;;4.55;1.52;;;;;;;;;;1033235;28;20057;-65
2023/12/23 01:48:22;;;;;;;5.93;1.63;;;;;;;;;;1033720;28;20060;-64
2023/12/23 01:48:55;;;;;;;6.80;2.42;;;;;;;;;;1033788;28;20062;-64
2023/12/23 01:49:27;;;;;;;9.85;2.25;;;;;;;;;;1031387;28;20049;-64
2023/12/23 01:49:58;;;;;;;6.93;1.67;;;;;;;;;;1032935;28;20187;-65
2023/12/23 01:50:29;;;;;;;6.53;1.83;;;;;;;;;;1032267;28;20104;-65
2023/12/23 01:50:59;;;;;;;5.60;2.70;;;;;;;;;;1032887;28;20053;-64
2023/12/23 01:51:31;;;;;;;3.95;2.25;;;;;;;;;;1033201;28;20501;-65
2023/12/23 01:52:02;;;;;;;4.55;1.88;;;;;;;;;;1031974;28;20498;-65
2023/12/23 01:52:34;;;;;;;4.95;1.92;;;;;;;;;;1031499;28;20052;-65
2023/12/23 01:53:05;;;;;;;3.65;1.80;;;;;;;;;;1038287;28;20587;-65
2023/12/23 01:53:36;;;;;;;9.82;3.17;;;;;;;;;;1037180;28;20041;-64
2023/12/23 01:54:07;;;;;;;11.57;2.28;;;;;;;;;;1037684;28;20049;-65
2023/12/23 01:54:38;;;;;;;5.20;1.52;;;;;;;;;;1035320;28;20159;-65
2023/12/23 01:55:08;;;;;;;3.97;1.63;;;;;;;;;;1037434;28;20545;-65
2023/12/23 01:55:39;;;;;;;4.90;1.80;;;;;;;;;;1036716;28;20045;-65
2023/12/23 01:56:10;;;;;;;5.43;2.03;;;;;;;;;;1037725;28;20083;-65
2023/12/23 01:56:42;;;;;;;6.45;1.60;;;;;;;;;;1036579;28;20051;-64
2023/12/23 01:57:13;;;;;;;6.38;1.63;;;;;;;;;;1037080;28;20114;-64
2023/12/23 01:57:44;;;;;;;12.18;3.17;;;;;;;;;;1037475;28;20556;-65
2023/12/23 01:58:15;;;;;;;9.45;2.10;;;;;;;;;;1038349;28;20049;-65
2023/12/23 01:58:46;;;;;;;7.55;1.75;;;;;;;;;;1035805;28;20080;-65
2023/12/23 01:59:17;;;;;;;9.40;2.22;;;;;;;;;;1036889;28;20052;-65
2023/12/23 01:59:48;;;;;;;7.47;1.55;;;;;;;;;;1035051;28;20045;-65
2023/12/23 02:00:20;;;;;;;12.93;1.95;;;;;;;;;;1039158;28;20076;-65
2023/12/23 02:00:50;;;;;;;6.80;2.03;;;;;;;;;;1039632;28;20701;-65
2023/12/23 02:01:21;;;;;;;8.20;1.88;;;;;;;;;;1041735;28;20707;-64
2023/12/23 02:01:52;;;;;;;4.05;1.35;;;;;;;;;;1040207;28;20057;-65
2023/12/23 02:02:23;;;;;;;11.00;1.85;;;;;;;;;;1035364;28;20745;-65
2023/12/23 02:02:53;;;;;;;5.00;2.03;;;;;;;;;;1038107;28;20059;-64
2023/12/23 02:03:24;;;;;;;4.00;1.45;;;;;;;;;;1036621;28;20087;-64
2023/12/23 02:03:55;;;;;;;7.25;2.88;;;;;;;;;;1037522;28;20049;-64
2023/12/23 02:04:26;;;;;;;3.28;1.30;;;;;;;;;;1036554;28;20045;-64
2023/12/23 02:04:57;;;;;;;8.73;1.85;;;;;;;;;;1036945;28;20080;-64
2023/12/23 02:05:28;;;;;;;8.55;1.83;;;;;;;;;;1035704;28;20085;-65
2023/12/23 02:05:59;;;;;;;7.45;2.92;;;;;;;;;;1038459;28;20101;-64
2023/12/23 02:06:29;;;;;;;8.82;1.70;;;;;;;;;;1035931;28;20045;-64
2023/12/23 02:06:59;;;;;;;7.25;1.70;;;;;;;;;;1038748;28;20053;-64
2023/12/23 02:07:30;;;;;;;9.02;2.75;;;;;;;;;;1037232;28;20430;-64
2023/12/23 02:08:01;;;;;;;6.10;1.70;;;;;;;;;;1037431;28;20033;-65
2023/12/23 02:08:31;;;;;;;6.50;1.90;;;;;;;;;;1036851;28;20049;-64
2023/12/23 02:09:02;;;;;;;10.80;1.88;;;;;;;;;;1035692;28;20135;-64
2023/12/23 02:09:33;;;;;;;6.22;1.67;;;;;;;;;;1036638;28;20050;-65
2023/12/23 02:10:04;;;;;;;8.40;1.80;;;;;;;;;;1036514;28;20141;-64
2023/12/23 02:10:34;;;;;;;9.43;2.20;;;;;;;;;;1037045;28;20092;-64
2023/12/23 02:11:05;;;;;;;5.68;1.80;;;;;;;;;;1035443;28;20057;-64
2023/12/23 02:12:02;;;;;;;7.65;1.73;;;;;;;;;;1036914;28;20055;-64
2023/12/23 02:13:02;;;;;;;6.75;1.33;;;;;;;;;;1036289;28;20065;-65
2023/12/23 02:13:43;;;;;;;6.43;1.40;;;;;;;;;;1031943;28;20146;-64
2023/12/23 02:14:30;;;;;;;7.90;1.60;;;;;;;;;;1036172;28;20141;-64
2023/12/23 02:15:06;;;;;;;4.63;1.50;;;;;;;;;;1036939;28;20497;-65
2023/12/23 02:15:38;;;;;;;4.50;1.60;;;;;;;;;;1032479;28;20045;-65
2023/12/23 02:16:09;;;;;;;12.93;2.08;;;;;;;;;;1032386;28;20061;-64
2023/12/23 02:16:40;;;;;;;10.43;2.28;;;;;;;;;;1033730;28;20056;-65
2023/12/23 02:17:11;;;;;;;8.43;2.13;;;;;;;;;;1037044;28;20048;-65
2023/12/23 02:17:41;;;;;;;4.68;1.63;;;;;;;;;;1036250;28;20540;-64
2023/12/23 02:18:12;;;;;;;6.45;2.03;;;;;;;;;;1036955;28;20050;-65
2023/12/23 02:18:43;;;;;;;7.78;2.00;;;;;;;;;;1034948;28;20058;-64
2023/12/23 02:19:13;;;;;;;6.30;1.70;;;;;;;;;;1035245;28;21326;-64
2023/12/23 02:19:44;;;;;;;7.07;2.50;;;;;;;;;;1036025;28;20578;-65
2023/12/23 02:20:14;;;;;;;11.70;2.15;;;;;;;;;;1035929;28;20053;-65
2023/12/23 02:20:49;;;;;;;4.63;1.30;;;;;;;;;;1035969;28;20116;-64
2023/12/23 02:21:19;;;;;;;6.97;2.53;;;;;;;;;;1037454;28;20045;-64
2023/12/23 02:21:50;;;;;;;4.20;1.65;;;;;;;;;;1035821;28;20115;-64
2023/12/23 02:22:20;;;;;;;3.72;1.50;;;;;;;;;;1035290;28;20493;-65
2023/12/23 02:22:51;;;;;;;5.80;1.50;;;;;;;;;;1037032;28;20049;-65
2023/12/23 02:23:21;;;;;;;7.90;2.83;;;;;;;;;;1037213;28;20121;-65
2023/12/23 02:23:52;;;;;;;7.18;1.92;;;;;;;;;;1036656;28;22083;-65
2023/12/23 02:24:23;;;;;;;5.57;1.65;;;;;;;;;;1037114;28;20183;-64
2023/12/23 02:24:53;;;;;;;4.25;1.55;;;;;;;;;;1036738;28;20053;-64
2023/12/23 02:25:24;;;;;;;12.15;2.30;;;;;;;;;;1036944;28;20057;-64
2023/12/23 02:26:00;;;;;;;7.55;2.10;;;;;;;;;;1034909;28;20810;-65
2023/12/23 02:26:33;;;;;;;7.43;1.65;;;;;;;;;;1035060;28;20049;-65
2023/12/23 02:27:14;;;;;;;6.25;1.73;;;;;;;;;;1036998;28;20104;-65
2023/12/23 02:27:50;;;;;;;9.70;1.88;;;;;;;;;;1037365;28;20149;-64
2023/12/23 02:28:22;;;;;;;4.95;1.50;;;;;;;;;;1036887;28;20062;-64
2023/12/23 02:28:54;;;;;;;8.07;1.88;;;;;;;;;;1035989;28;20140;-64
2023/12/23 02:29:26;;;;;;;6.65;2.17;;;;;;;;;;1034088;28;20069;-65
2023/12/23 02:29:58;;;;;;;8.10;1.55;;;;;;;;;;1036681;28;20417;-64
2023/12/23 02:30:30;;;;;;;6.18;1.92;;;;;;;;;;1034251;28;20060;-64
2023/12/23 02:31:01;;;;;;;4.00;1.92;;;;;;;;;;1036019;28;20064;-64
2023/12/23 02:31:33;;;;;;;9.65;2.67;;;;;;;;;;1036853;28;20045;-65
2023/12/23 02:32:05;;;;;;;10.05;1.88;;;;;;;;;;1036724;28;20051;-65
2023/12/23 02:32:36;;;;;;;7.10;1.70;;;;;;;;;;1037306;28;20457;-64
2023/12/23 02:33:08;;;;;;;5.47;1.60;;;;;;;;;;1037938;28;20049;-64
2023/12/23 02:33:38;;;;;;;6.07;1.92;;;;;;;;;;1036270;28;20056;-65
2023/12/23 02:34:09;;;;;;;4.80;1.48;;;;;;;;;;1036942;28;20045;-64
2023/12/23 02:34:41;;;;;;;3.28;1.75;;;;;;;;;;1036904;28;20046;-65
2023/12/23 02:35:12;;;;;;;3.45;1.25;;;;;;;;;;1035425;28;20037;-64
2023/12/23 02:35:42;;;;;;;5.13;2.28;;;;;;;;;;1034821;28;20052;-64
2023/12/23 02:36:13;;;;;;;6.35;1.52;;;;;;;;;;1036137;28;20081;-64
2023/12/23 02:36:44;;;;;;;5.55;1.85;;;;;;;;;;1037601;28;20053;-64
2023/12/23 02:37:14;;;;;;;3.90;1.40;;;;;;;;;;1036658;28;20084;-64
2023/12/23 02:37:45;;;;;;;9.32;2.05;;;;;;;;;;1036385;28;20516;-65
2023/12/23 02:38:15;;;;;;;7.45;1.80;;;;;;;;;;1036971;28;20052;-65
2023/12/23 02:38:47;;;;;;;5.25;1.83;;;;;;;;;;1035247;28;20076;-64
2023/12/23 02:39:17;;;;;;;10.18;2.00;;;;;;;;;;1038042;28;20437;-64
2023/12/23 02:39:48;;;;;;;3.03;1.33;;;;;;;;;;1037139;28;20497;-64
2023/12/23 02:40:18;;;;;;;8.45;1.75;;;;;;;;;;1037082;28;20658;-64
2023/12/23 02:40:49;;;;;;;3.53;2.20;;;;;;;;;;1035152;28;20088;-64
2023/12/23 02:41:19;;;;;;;5.47;2.50;;;;;;;;;;1036756;28;20088;-64
2023/12/23 02:41:50;;;;;;;5.57;1.85;;;;;;;;;;1035651;28;20078;-64
2023/12/23 02:42:20;;;;;;;6.18;2.05;;;;;;;;;;1037398;28;20049;-64
2023/12/23 02:42:51;;;;;;;5.82;1.85;;;;;;;;;;1037470;28;20041;-64
2023/12/23 02:43:21;;;;;;;6.30;2.00;;;;;;;;;;1036488;28;20060;-64
2023/12/23 02:43:52;;;;;;;6.65;1.80;;;;;;;;;;1036209;28;20045;-64
2023/12/23 02:44:22;;;;;;;5.47;1.75;;;;;;;;;;1037326;28;20034;-65
2023/12/23 02:44:53;;;;;;;6.97;1.70;;;;;;;;;;1037929;28;20049;-65
2023/12/23 02:45:23;;;;;;;5.68;1.60;;;;;;;;;;1035285;28;20052;-64
2023/12/23 02:45:54;;;;;;;7.30;1.83;;;;;;;;;;1037899;28;20049;-64
2023/12/23 02:46:24;;;;;;;3.47;1.83;;;;;;;;;;1036111;28;20053;-64
2023/12/23 02:46:55;;;;;;;3.88;1.63;;;;;;;;;;1037745;28;20049;-64
2023/12/23 02:47:25;;;;;;;6.20;1.90;;;;;;;;;;1036027;28;20057;-64
2023/12/23 02:47:56;;;;;;;4.38;1.63;;;;;;;;;;1037884;28;20045;-64
2023/12/23 02:48:27;;;;;;;10.13;1.90;;;;;;;;;;1037297;28;20057;-64
2023/12/23 02:48:59;;;;;;;1.98;1.30;;;;;;;;;;1036550;28;20466;-64
2023/12/23 02:49:30;;;;;;;7.65;2.03;;;;;;;;;;1036684;28;20045;-64
2023/12/23 02:50:01;;;;;;;6.53;1.63;;;;;;;;;;1037674;28;20051;-64
2023/12/23 02:50:32;;;;;;;3.60;1.50;;;;;;;;;;1036512;28;20045;-64
2023/12/23 02:51:02;;;;;;;5.22;1.60;;;;;;;;;;1036807;28;20058;-64
2023/12/23 02:51:32;;;;;;;6.20;1.90;;;;;;;;;;1037210;28;20206;-64
2023/12/23 02:52:03;;;;;;;14.85;2.13;;;;;;;;;;1037647;28;20053;-65
2023/12/23 02:52:34;;;;;;;4.32;1.60;;;;;;;;;;1036589;28;20561;-64
2023/12/23 02:53:07;;;;;;;6.93;1.30;;;;;;;;;;1036615;28;20057;-65
2023/12/23 02:53:38;;;;;;;6.85;2.17;;;;;;;;;;1036042;28;20081;-64
2023/12/23 02:54:09;;;;;;;9.00;1.55;;;;;;;;;;1037243;28;20045;-64
2023/12/23 02:54:39;;;;;;;3.38;1.40;;;;;;;;;;1037244;28;20041;-64
2023/12/23 02:55:10;;;;;;;7.47;1.45;;;;;;;;;;1038077;28;20559;-64
2023/12/23 02:55:40;;;;;;;8.65;1.73;;;;;;;;;;1036799;28;20537;-64
2023/12/23 02:56:11;;;;;;;7.80;1.90;;;;;;;;;;1037150;28;20053;-64
2023/12/23 02:56:41;;;;;;;2.60;1.33;;;;;;;;;;1036730;28;20067;-65
2023/12/23 02:57:12;;;;;;;3.88;1.30;;;;;;;;;;1036041;28;20779;-64
2023/12/23 02:57:42;;;;;;;6.38;1.88;;;;;;;;;;1036452;28;20175;-64
2023/12/23 02:58:13;;;;;;;5.38;1.88;;;;;;;;;;1036608;28;20707;-64
2023/12/23 02:58:43;;;;;;;8.00;1.95;;;;;;;;;;1036964;28;20053;-65
2023/12/23 02:59:14;;;;;;;3.47;1.83;;;;;;;;;;1035560;28;20628;-65
2023/12/23 02:59:44;;;;;;;4.47;1.65;;;;;;;;;;1037393;28;20049;-64
2023/12/23 03:00:15;;;;;;;6.10;1.67;;;;;;;;;;1036921;28;20057;-65
2023/12/23 03:00:46;;;;;;;11.48;1.73;;;;;;;;;;1034392;28;20492;-65
2023/12/23 03:01:20;;;;;;;4.10;1.77;;;;;;;;;;1034935;28;20089;-64
2023/12/23 03:01:50;;;;;;;7.00;1.60;;;;;;;;;;1034901;28;20057;-64
2023/12/23 03:02:21;;;;;;;3.47;1.42;;;;;;;;;;1036812;28;20132;-64
2023/12/23 03:02:51;;;;;;;5.93;1.63;;;;;;;;;;1036574;28;20061;-65
2023/12/23 03:03:22;;;;;;;4.65;1.30;;;;;;;;;;1037116;28;20091;-64
2023/12/23 03:03:53;;;;;;;4.60;1.30;;;;;;;;;;1037803;28;20049;-64
2023/12/23 03:04:24;;;;;;;3.90;1.67;;;;;;;;;;1035933;28;20391;-65
2023/12/23 03:04:54;;;;;;;4.47;1.70;;;;;;;;;;1036798;28;20080;-64
2023/12/23 03:05:25;;;;;;;5.88;1.83;;;;;;;;;;1035315;28;20056;-64
2023/12/23 03:05:55;;;;;;;6.50;1.88;;;;;;;;;;1035400;28;20042;-64